Time;durP1;ratioP1;P1;durP2;ratioP2;P2;SDS_P1;SDS_P2;PMS_P1;PMS_P2;Temp;Humidity;BMP_temperature;BMP_pressure;BME280_temperature;BME280_humidity;BME280_pressure;Samples;Min_cycle;Max_cycle;Signal;HPM_P1;HPM_P2
2022/01/11 00:02:41;;;;;;;31.70;15.15;;;;;;;-3.15;100.00;102915.94;15297603;19;20097;-68
2022/01/11 00:07:51;;;;;;;26.25;13.30;;;;;;;-3.10;100.00;102919.88;15295476;19;20692;-68
2022/01/11 00:13:00;;;;;;;29.95;14.00;;;;;;;-3.11;100.00;102922.28;15293532;19;20600;-69
2022/01/11 00:18:02;;;;;;;32.83;14.98;;;;;;;-3.11;100.00;102925.75;15292684;19;20546;-68
2022/01/11 00:28:10;;;;;;;37.75;15.48;;;;;;;-2.95;100.00;102932.53;15294719;19;20462;-68
2022/01/11 00:33:31;;;;;;;44.33;15.85;;;;;;;-2.84;100.00;102937.13;15290622;19;20462;-68
2022/01/11 00:38:34;;;;;;;41.67;15.63;;;;;;;-2.70;100.00;102943.72;15294055;19;20034;-67
2022/01/11 00:43:38;;;;;;;38.17;15.95;;;;;;;-2.60;100.00;102935.31;15294025;19;20025;-67
2022/01/11 00:48:40;;;;;;;31.25;13.73;;;;;;;-2.56;100.00;102938.38;15290925;19;20506;-68
2022/01/11 00:53:42;;;;;;;37.88;14.65;;;;;;;-2.47;100.00;102942.66;15283463;19;20393;-68
2022/01/11 00:58:44;;;;;;;31.00;15.95;;;;;;;-2.42;100.00;102950.06;15294207;19;20015;-68
2022/01/11 01:03:50;;;;;;;23.83;13.55;;;;;;;-2.37;100.00;102950.53;15295796;19;20035;-67
2022/01/11 01:08:51;;;;;;;26.17;14.07;;;;;;;-2.33;100.00;102953.59;15286477;19;20011;-67
2022/01/11 01:13:54;;;;;;;29.08;15.05;;;;;;;-2.34;100.00;102959.47;15281929;19;20030;-67
2022/01/11 01:18:56;;;;;;;33.13;17.42;;;;;;;-2.38;100.00;102957.34;15285747;19;20022;-67
2022/01/11 01:23:58;;;;;;;34.20;15.07;;;;;;;-2.40;100.00;102965.63;15287964;19;20047;-67
2022/01/11 01:29:00;;;;;;;30.67;15.48;;;;;;;-2.38;100.00;102980.44;15291214;19;20078;-67
2022/01/11 01:34:02;;;;;;;32.78;16.30;;;;;;;-2.34;100.00;102982.56;15280340;19;20022;-68
2022/01/11 01:39:04;;;;;;;33.15;17.80;;;;;;;-2.36;100.00;102994.34;15288564;19;20010;-67
2022/01/11 01:44:06;;;;;;;38.22;15.80;;;;;;;-2.35;100.00;103003.84;15286266;19;20022;-67
2022/01/11 01:49:15;;;;;;;38.40;17.05;;;;;;;-2.34;100.00;103004.78;15288071;19;20539;-67
2022/01/11 01:54:18;;;;;;;60.90;17.33;;;;;;;-2.27;100.00;103008.88;15289091;19;20123;-67
2022/01/11 01:59:23;;;;;;;37.78;17.45;;;;;;;-2.25;100.00;103009.94;15284430;19;20030;-67
2022/01/11 02:04:25;;;;;;;37.25;16.95;;;;;;;-2.24;100.00;103012.66;15289095;19;20014;-68
2022/01/11 02:09:27;;;;;;;30.40;16.25;;;;;;;-2.26;100.00;103018.41;15288013;19;20078;-68
2022/01/11 02:14:29;;;;;;;43.47;16.20;;;;;;;-2.21;100.00;103030.03;15284706;19;20369;-68
2022/01/11 02:19:31;;;;;;;41.30;16.88;;;;;;;-2.23;100.00;103027.31;15276761;19;20018;-68
2022/01/11 02:24:33;;;;;;;32.45;16.15;;;;;;;-2.23;100.00;103027.31;15283248;19;20014;-68
2022/01/11 02:29:38;;;;;;;28.88;16.08;;;;;;;-2.15;100.00;103033.25;15281263;19;20014;-67
2022/01/11 02:34:40;;;;;;;45.80;18.33;;;;;;;-2.21;100.00;103032.59;15282445;19;20047;-66
2022/01/11 02:40:03;;;;;;;32.53;16.30;;;;;;;-2.21;100.00;103037.75;15279509;19;20383;-67
2022/01/11 02:45:16;;;;;;;40.55;17.20;;;;;;;-2.25;100.00;103036.53;15282744;19;20549;-67
2022/01/11 02:50:19;;;;;;;36.05;17.88;;;;;;;-2.24;100.00;103034.84;15284201;19;20022;-67
2022/01/11 02:55:23;;;;;;;39.58;17.30;;;;;;;-2.23;100.00;103036.69;15283722;19;20025;-66
2022/01/11 03:00:25;;;;;;;30.42;15.57;;;;;;;-2.24;100.00;103024.59;15283309;19;20047;-66
2022/01/11 03:05:32;;;;;;;40.00;16.23;;;;;;;-2.19;100.00;103028.53;15285694;19;20028;-67
2022/01/11 03:10:36;;;;;;;39.08;14.60;;;;;;;-2.19;100.00;103023.41;15266129;19;20073;-68
2022/01/11 03:15:40;;;;;;;31.50;15.60;;;;;;;-2.22;100.00;103029.16;15294881;19;20051;-68
2022/01/11 03:20:47;;;;;;;36.90;16.00;;;;;;;-2.33;100.00;103034.78;15297449;19;20475;-67
2022/01/11 03:25:53;;;;;;;31.08;16.20;;;;;;;-2.38;100.00;103042.00;15299192;19;20492;-68
2022/01/11 03:30:55;;;;;;;38.13;16.27;;;;;;;-2.31;100.00;103034.22;15296119;19;20015;-68
2022/01/11 03:35:58;;;;;;;31.10;15.32;;;;;;;-2.41;100.00;103045.94;15294871;19;20013;-68
2022/01/11 03:41:00;;;;;;;27.45;14.90;;;;;;;-2.55;100.00;103047.94;15294589;19;20360;-68
2022/01/11 03:46:03;;;;;;;29.08;15.00;;;;;;;-2.65;100.00;103050.25;15297232;19;20048;-68
2022/01/11 03:51:06;;;;;;;30.13;16.40;;;;;;;-2.70;100.00;103051.44;15294149;19;20011;-68
2022/01/11 03:56:26;;;;;;;30.23;14.27;;;;;;;-2.74;100.00;103054.41;15294568;19;20757;-68
2022/01/11 04:01:39;;;;;;;29.38;14.77;;;;;;;-2.89;100.00;103044.31;15272120;19;20015;-68
2022/01/11 04:12:54;;;;;;;25.75;14.10;;;;;;;-3.12;100.00;103049.53;15285203;19;20078;-68
2022/01/11 04:17:56;;;;;;;27.52;14.57;;;;;;;-3.20;100.00;103048.72;15283620;19;20011;-66
2022/01/11 04:22:58;;;;;;;28.33;14.30;;;;;;;-3.34;100.00;103058.19;15290448;19;20275;-66
2022/01/11 04:28:01;;;;;;;36.97;15.10;;;;;;;-3.37;100.00;103062.22;15293452;19;20054;-65
2022/01/11 04:33:04;;;;;;;33.72;14.95;;;;;;;-3.33;100.00;103067.69;15292981;19;20010;-68
2022/01/11 04:38:07;;;;;;;28.38;14.13;;;;;;;-3.32;100.00;103057.59;15289564;19;20086;-69
2022/01/11 04:43:08;;;;;;;35.72;14.20;;;;;;;-3.29;100.00;103059.59;15283640;19;20017;-69
2022/01/11 04:48:19;;;;;;;46.20;14.68;;;;;;;-3.31;100.00;103064.56;15291602;19;20110;-69
2022/01/11 04:53:26;;;;;;;41.45;14.02;;;;;;;-3.43;100.00;103074.38;15291305;19;20043;-68
2022/01/11 04:58:30;;;;;;;51.47;15.25;;;;;;;-3.46;100.00;103074.03;15290780;19;20054;-69
2022/01/11 05:03:33;;;;;;;36.35;14.57;;;;;;;-3.32;100.00;103075.53;15281827;19;20013;-67
2022/01/11 05:08:37;;;;;;;33.40;15.02;;;;;;;-3.39;100.00;103079.09;15291849;19;20594;-67
2022/01/11 05:13:43;;;;;;;36.63;15.45;;;;;;;-3.39;100.00;103068.84;15289251;19;20010;-66
2022/01/11 05:24:38;;;;;;;32.90;13.63;;;;;;;-3.47;100.00;103063.63;15285942;19;19914;-67
2022/01/11 05:29:40;;;;;;;38.90;15.02;;;;;;;-3.61;100.00;103055.31;15285038;19;20107;-67
2022/01/11 05:34:42;;;;;;;45.78;15.93;;;;;;;-3.62;100.00;103065.38;15287281;19;20097;-66
2022/01/11 05:39:43;;;;;;;45.88;15.05;;;;;;;-3.55;100.00;103065.34;15288064;19;20028;-67
2022/01/11 05:44:45;;;;;;;32.08;16.52;;;;;;;-3.52;100.00;103065.66;15283419;19;20014;-67
2022/01/11 05:49:48;;;;;;;33.83;15.90;;;;;;;-3.48;100.00;103064.34;15281622;19;20034;-67
2022/01/11 05:54:49;;;;;;;28.17;14.65;;;;;;;-3.48;100.00;103064.34;15287614;19;20018;-67
2022/01/11 05:59:51;;;;;;;39.30;17.40;;;;;;;-3.43;100.00;103071.81;15287537;19;20402;-67
2022/01/11 06:04:53;;;;;;;37.10;18.05;;;;;;;-3.39;100.00;103065.38;15288080;19;20035;-67
2022/01/11 06:09:55;;;;;;;58.05;19.58;;;;;;;-3.32;100.00;103070.41;15282513;19;20022;-68
2022/01/11 06:14:57;;;;;;;44.78;18.30;;;;;;;-3.25;100.00;103062.66;15271094;19;20086;-68
2022/01/11 06:19:59;;;;;;;50.38;19.25;;;;;;;-3.16;100.00;103067.88;15283503;19;20023;-68
2022/01/11 06:25:06;;;;;;;43.45;17.95;;;;;;;-3.21;100.00;103069.06;15284701;19;20906;-67
2022/01/11 06:30:11;;;;;;;48.28;18.20;;;;;;;-3.19;100.00;103070.13;15279570;19;20010;-68
2022/01/11 06:35:18;;;;;;;50.83;18.65;;;;;;;-3.17;100.00;103066.06;15280799;19;20082;-67
2022/01/11 06:40:27;;;;;;;38.75;17.33;;;;;;;-3.07;100.00;103070.53;15281518;19;20031;-67
2022/01/11 06:51:44;;;;;;;46.35;16.80;;;;;;;-3.07;100.00;103083.38;15295402;19;20022;-68
2022/01/11 06:56:46;;;;;;;40.05;17.88;;;;;;;-3.03;100.00;103096.69;15298098;19;20011;-68
2022/01/11 07:01:59;;;;;;;48.58;19.10;;;;;;;-3.06;100.00;103093.78;15274836;19;20011;-69
2022/01/11 07:07:20;;;;;;;56.20;19.08;;;;;;;-3.04;100.00;103099.97;15300004;19;20791;-68
2022/01/11 07:12:22;;;;;;;41.95;17.23;;;;;;;-3.05;100.00;103098.16;15297324;19;20514;-69
2022/01/11 07:17:25;;;;;;;50.40;19.15;;;;;;;-3.05;100.00;103097.25;15297307;19;20011;-68
2022/01/11 07:22:29;;;;;;;40.22;16.17;;;;;;;-3.08;100.00;103091.78;15295867;19;20018;-67
2022/01/11 07:27:34;;;;;;;45.63;17.98;;;;;;;-3.08;100.00;103096.91;15296292;19;20022;-69
2022/01/11 07:32:40;;;;;;;43.22;18.27;;;;;;;-3.18;100.00;103105.25;15294045;19;20038;-68
2022/01/11 07:37:42;;;;;;;37.72;16.13;;;;;;;-3.10;100.00;103113.78;15292022;19;20015;-68
2022/01/11 07:42:46;;;;;;;48.28;18.10;;;;;;;-3.12;100.00;103116.19;15290736;19;20019;-68
2022/01/11 07:48:07;;;;;;;39.75;16.13;;;;;;;-3.08;100.00;103127.66;15287983;19;20022;-68
2022/01/11 07:53:16;;;;;;;49.38;20.45;;;;;;;-3.13;100.00;103134.84;15296356;19;20035;-68
2022/01/11 07:58:24;;;;;;;51.90;18.45;;;;;;;-3.12;100.00;103140.88;15291507;19;20025;-69
2022/01/11 08:03:26;;;;;;;44.58;16.90;;;;;;;-3.16;100.00;103131.97;15275389;19;20050;-68
2022/01/11 08:08:43;;;;;;;46.17;16.55;;;;;;;-3.15;100.00;103133.78;15296924;19;20047;-68
2022/01/11 08:13:45;;;;;;;41.20;15.90;;;;;;;-3.17;100.00;103132.69;15270817;19;20081;-69
2022/01/11 08:18:47;;;;;;;41.47;16.40;;;;;;;-3.14;100.00;103145.84;15290592;19;20550;-69
2022/01/11 08:23:49;;;;;;;40.80;17.38;;;;;;;-3.12;100.00;103143.44;15292745;19;20098;-66
2022/01/11 08:28:51;;;;;;;40.90;16.48;;;;;;;-3.14;100.00;103156.09;15285850;19;20027;-66
2022/01/11 08:33:53;;;;;;;48.55;16.95;;;;;;;-3.01;100.00;103166.06;15291347;19;20070;-68
2022/01/11 08:38:56;;;;;;;42.63;16.17;;;;;;;-2.97;100.00;103151.91;15283268;19;20482;-68
2022/01/11 08:43:58;;;;;;;38.03;15.07;;;;;;;-2.92;100.00;103168.72;15258899;19;20423;-69
2022/01/11 08:49:00;;;;;;;38.50;15.68;;;;;;;-2.83;100.00;103159.47;15286835;19;20082;-69
2022/01/11 08:54:03;;;;;;;35.60;16.30;;;;;;;-2.74;100.00;103170.72;15290447;19;20032;-68
2022/01/11 08:59:06;;;;;;;36.40;16.25;;;;;;;-2.68;100.00;103179.09;15282784;19;20018;-68
2022/01/11 09:04:17;;;;;;;35.83;14.77;;;;;;;-2.59;100.00;103173.16;15284011;19;20383;-66
2022/01/11 09:09:38;;;;;;;32.50;14.45;;;;;;;-2.54;100.00;103172.91;15283031;19;20011;-67
2022/01/11 09:14:41;;;;;;;35.05;16.20;;;;;;;-2.39;100.00;103176.19;15285121;19;20014;-66
2022/01/11 09:19:44;;;;;;;31.83;13.98;;;;;;;-2.35;100.00;103183.47;15280380;19;20038;-66
2022/01/11 09:24:48;;;;;;;32.38;14.80;;;;;;;-2.25;100.00;103181.91;15276114;19;20027;-67
2022/01/11 09:29:54;;;;;;;32.13;14.88;;;;;;;-2.06;100.00;103187.34;15281483;19;20021;-66
2022/01/11 09:34:58;;;;;;;34.42;15.18;;;;;;;-1.92;100.00;103184.59;15283003;19;20018;-67
2022/01/11 09:40:06;;;;;;;35.47;16.30;;;;;;;-1.69;100.00;103187.03;15280083;19;20062;-67
2022/01/11 09:45:10;;;;;;;39.30;16.35;;;;;;;-1.49;100.00;103183.06;15281520;19;20014;-67
2022/01/11 09:50:18;;;;;;;35.92;14.73;;;;;;;-1.25;100.00;103185.63;15284719;19;20018;-67
2022/01/11 09:55:31;;;;;;;29.58;14.88;;;;;;;-0.97;100.00;103180.72;15281560;19;20082;-66
2022/01/11 10:00:35;;;;;;;38.05;17.40;;;;;;;-0.95;100.00;103184.34;15285718;19;20038;-67
2022/01/11 10:06:14;;;;;;;33.60;15.02;;;;;;;-0.49;100.00;103184.63;15281468;19;20011;-67
2022/01/11 10:11:33;;;;;;;33.17;15.27;;;;;;;-0.27;100.00;103188.59;15279442;19;20023;-68
2022/01/11 10:16:36;;;;;;;34.85;16.30;;;;;;;-0.06;100.00;103176.00;15281227;19;20078;-68
2022/01/11 10:21:44;;;;;;;36.55;15.85;;;;;;;0.10;100.00;103171.59;15279206;19;20437;-68
2022/01/11 10:26:54;;;;;;;34.20;15.23;;;;;;;0.28;100.00;103163.84;15278505;19;20011;-68
2022/01/11 10:32:00;;;;;;;32.65;15.25;;;;;;;0.47;99.11;103164.88;15278981;19;20014;-66
2022/01/11 10:37:07;;;;;;;33.75;15.65;;;;;;;0.74;98.63;103157.94;15279393;19;20010;-67
2022/01/11 10:42:30;;;;;;;33.90;14.80;;;;;;;0.78;98.20;103152.31;15279536;19;20010;-67
2022/01/11 10:47:41;;;;;;;38.38;15.73;;;;;;;0.94;97.70;103146.03;15280463;19;20014;-66
2022/01/11 10:52:44;;;;;;;28.52;14.18;;;;;;;1.02;96.90;103130.50;15281176;19;20506;-67
2022/01/11 10:58:00;;;;;;;30.27;14.60;;;;;;;1.16;96.07;103133.47;15277276;19;20086;-67
2022/01/11 11:03:20;;;;;;;39.35;16.48;;;;;;;1.28;95.07;103144.03;15282089;19;20089;-66
2022/01/11 11:08:47;;;;;;;32.25;15.43;;;;;;;1.41;95.62;103155.63;15254262;19;20014;-66
2022/01/11 11:14:12;;;;;;;27.52;11.23;;;;;;;1.43;95.29;103168.66;15278583;19;20007;-66
2022/01/11 11:19:17;;;;;;;28.75;13.40;;;;;;;1.35;95.80;103164.44;15274233;19;20042;-66
2022/01/11 11:24:27;;;;;;;27.13;13.27;;;;;;;1.71;95.97;103154.03;15276720;19;20006;-66
2022/01/11 11:29:29;;;;;;;24.35;12.35;;;;;;;1.92;95.06;103157.66;15277410;19;20010;-66
2022/01/11 11:34:50;;;;;;;29.98;13.50;;;;;;;2.05;93.94;103149.31;15293528;19;20114;-67
2022/01/11 11:40:02;;;;;;;36.05;11.20;;;;;;;2.33;93.49;103140.50;15286643;19;20018;-66
2022/01/11 11:45:18;;;;;;;21.77;10.90;;;;;;;2.59;92.82;103133.34;15291699;19;20032;-66
2022/01/11 11:50:22;;;;;;;24.15;9.57;;;;;;;2.74;91.00;103136.38;15293349;19;20082;-66
2022/01/11 11:55:30;;;;;;;19.33;8.50;;;;;;;2.75;90.04;103132.13;15290339;19;20110;-66
2022/01/11 12:00:36;;;;;;;21.13;8.82;;;;;;;2.61;90.83;103138.66;15286281;19;20010;-67
2022/01/11 12:06:02;;;;;;;18.30;8.38;;;;;;;2.65;90.10;103131.28;15273219;19;20339;-66
2022/01/11 12:11:11;;;;;;;19.63;7.50;;;;;;;2.48;90.55;103136.69;15291822;19;20022;-66
2022/01/11 12:16:25;;;;;;;14.90;7.50;;;;;;;2.47;91.46;103128.00;15287427;19;20006;-66
2022/01/11 12:21:30;;;;;;;18.75;7.95;;;;;;;2.38;90.82;103124.63;15294770;19;20010;-66
2022/01/11 12:26:37;;;;;;;17.98;7.57;;;;;;;2.29;91.23;103124.72;15294077;19;20070;-66
2022/01/11 12:31:53;;;;;;;18.02;7.38;;;;;;;2.19;91.29;103122.13;15292155;19;20010;-67
2022/01/11 12:37:04;;;;;;;19.63;7.40;;;;;;;2.04;91.55;103124.25;15294038;19;20019;-67
2022/01/11 12:42:25;;;;;;;16.30;7.30;;;;;;;1.96;92.37;103117.47;15292339;19;20490;-66
2022/01/11 12:47:41;;;;;;;15.68;6.35;;;;;;;2.00;91.79;103116.97;15290153;19;20616;-67
2022/01/11 12:52:43;;;;;;;12.52;6.28;;;;;;;2.03;91.50;103121.53;15292686;19;20011;-67
2022/01/11 12:57:45;;;;;;;15.73;6.55;;;;;;;2.14;90.75;103136.28;15288361;19;20090;-66
2022/01/11 13:02:46;;;;;;;16.67;6.80;;;;;;;2.12;90.13;103132.69;15285165;19;20014;-66
2022/01/11 13:07:54;;;;;;;13.95;5.45;;;;;;;2.19;90.33;103132.47;15287430;19;20021;-66
2022/01/11 13:13:09;;;;;;;17.83;7.22;;;;;;;2.24;89.83;103136.34;15287811;19;20014;-66
2022/01/11 13:18:15;;;;;;;14.98;6.38;;;;;;;2.36;89.59;103133.00;15285194;19;20431;-66
2022/01/11 13:23:32;;;;;;;16.73;6.28;;;;;;;2.50;88.22;103137.72;15284532;19;20015;-66
2022/01/11 13:28:56;;;;;;;13.50;5.72;;;;;;;2.59;87.08;103140.22;15284557;19;20110;-66
2022/01/11 13:34:03;;;;;;;13.23;5.70;;;;;;;2.57;87.61;103142.66;15286934;19;20014;-68
2022/01/11 13:39:12;;;;;;;12.35;5.43;;;;;;;2.61;86.76;103128.31;15284112;19;20082;-67
2022/01/11 13:44:20;;;;;;;15.23;5.63;;;;;;;2.55;87.23;103133.88;15293227;19;20022;-67
2022/01/11 13:49:34;;;;;;;14.82;6.03;;;;;;;2.64;86.62;103133.75;15288631;19;20022;-68
2022/01/11 13:54:41;;;;;;;12.32;5.07;;;;;;;2.62;86.56;103132.72;15284360;19;20471;-68
2022/01/11 13:59:44;;;;;;;16.58;5.47;;;;;;;2.50;86.64;103134.25;15283916;19;20011;-68
2022/01/11 14:04:54;;;;;;;12.82;5.38;;;;;;;2.39;88.15;103133.31;15289813;19;20010;-68
2022/01/11 14:10:03;;;;;;;15.38;5.63;;;;;;;2.42;87.48;103136.16;15287006;19;20478;-68
2022/01/11 14:15:08;;;;;;;14.35;5.00;;;;;;;2.37;87.69;103133.19;15283578;19;20078;-68
2022/01/11 14:20:30;;;;;;;13.20;5.55;;;;;;;2.32;87.44;103129.25;15287462;19;20035;-68
2022/01/11 14:25:35;;;;;;;13.95;6.40;;;;;;;2.31;87.88;103135.19;15290758;19;20087;-68
2022/01/11 14:30:41;;;;;;;16.35;5.95;;;;;;;2.30;87.47;103121.38;15282487;19;20007;-68
2022/01/11 14:35:43;;;;;;;15.68;5.97;;;;;;;2.25;88.37;103126.91;15290336;19;20014;-68
2022/01/11 14:40:45;;;;;;;15.48;5.90;;;;;;;2.25;88.07;103127.81;15280513;19;20007;-68
2022/01/11 14:45:51;;;;;;;14.18;5.63;;;;;;;2.12;89.58;103124.94;15280873;19;20011;-68
2022/01/11 14:50:52;;;;;;;14.10;5.20;;;;;;;2.07;89.32;103121.00;15283090;19;20006;-70
2022/01/11 14:55:57;;;;;;;14.52;5.80;;;;;;;2.11;88.84;103124.00;15280831;19;20019;-68
2022/01/11 15:01:01;;;;;;;19.00;7.07;;;;;;;2.08;88.82;103126.31;15283614;19;20103;-67
2022/01/11 15:06:19;;;;;;;14.55;5.55;;;;;;;2.13;88.45;103126.72;15285353;19;20015;-66
2022/01/11 15:11:25;;;;;;;13.98;5.28;;;;;;;2.17;88.03;103138.25;15297265;19;20007;-67
2022/01/11 15:16:28;;;;;;;13.30;5.22;;;;;;;2.08;88.17;103131.47;15293534;19;20016;-69
2022/01/11 15:21:32;;;;;;;17.08;5.78;;;;;;;2.03;88.88;103139.63;15286191;19;20026;-66
2022/01/11 15:26:36;;;;;;;15.90;5.40;;;;;;;2.03;88.81;103140.50;15286765;19;20102;-66
2022/01/11 15:31:40;;;;;;;13.32;5.45;;;;;;;2.00;88.51;103142.81;15288300;19;20071;-66
2022/01/11 15:36:43;;;;;;;12.18;5.28;;;;;;;1.99;88.46;103145.28;15292777;19;20032;-66
2022/01/11 15:41:45;;;;;;;13.38;5.72;;;;;;;2.00;88.79;103150.56;15292251;19;20097;-66
2022/01/11 15:46:47;;;;;;;11.93;5.35;;;;;;;2.01;88.08;103146.31;15301178;19;20058;-66
2022/01/11 15:51:50;;;;;;;18.23;5.75;;;;;;;1.95;88.33;103157.00;15297861;19;20018;-66
2022/01/11 15:56:52;;;;;;;15.95;6.35;;;;;;;1.93;88.50;103154.28;15291196;19;20070;-66
2022/01/11 16:01:56;;;;;;;17.02;6.30;;;;;;;1.96;88.33;103155.34;15290885;19;20032;-68
2022/01/11 16:07:01;;;;;;;13.95;6.18;;;;;;;1.84;88.85;103156.03;15297881;19;20015;-68
2022/01/11 16:12:06;;;;;;;21.13;6.10;;;;;;;1.82;88.55;103157.59;15295087;19;20042;-68
2022/01/11 16:17:07;;;;;;;14.73;6.30;;;;;;;1.86;88.57;103163.91;15294823;19;20421;-68
2022/01/11 16:22:25;;;;;;;12.60;5.68;;;;;;;1.85;88.79;103169.88;15294812;19;20029;-68
2022/01/11 16:27:27;;;;;;;16.75;6.65;;;;;;;1.79;89.07;103170.22;15292045;19;20018;-68
2022/01/11 16:33:22;;;;;;;13.93;6.30;;;;;;;1.80;88.39;103161.69;15289511;19;20018;-68
2022/01/11 16:38:47;;;;;;;13.60;6.32;;;;;;;1.90;88.16;103166.91;15285436;19;20481;-69
2022/01/11 16:43:51;;;;;;;19.70;6.85;;;;;;;1.89;88.06;103162.53;15293279;19;20018;-67
2022/01/11 16:48:52;;;;;;;14.35;6.80;;;;;;;1.88;88.04;103170.16;15289402;19;20420;-71
2022/01/11 16:53:54;;;;;;;14.52;6.22;;;;;;;1.90;88.01;103172.09;15288608;19;20089;-69
2022/01/11 16:58:55;;;;;;;14.40;6.80;;;;;;;1.84;88.21;103163.78;15291238;19;20621;-67
2022/01/11 17:03:57;;;;;;;18.10;6.38;;;;;;;1.87;87.58;103173.50;15292103;19;20068;-66
2022/01/11 17:09:07;;;;;;;16.48;6.55;;;;;;;1.85;87.27;103170.78;15293203;19;20015;-68
2022/01/11 17:14:08;;;;;;;15.18;6.82;;;;;;;1.95;87.14;103182.84;15287522;19;20015;-67
2022/01/11 17:19:10;;;;;;;15.05;7.07;;;;;;;1.84;87.29;103180.97;15290205;19;20032;-67
2022/01/11 17:24:12;;;;;;;19.58;7.43;;;;;;;1.85;87.24;103186.28;15286087;19;20035;-67
2022/01/11 17:29:14;;;;;;;13.00;5.88;;;;;;;1.81;87.32;103184.16;15289110;19;20089;-67
2022/01/11 17:34:17;;;;;;;13.48;6.15;;;;;;;1.80;87.79;103187.50;15286129;19;20014;-66
2022/01/11 17:39:19;;;;;;;17.70;7.95;;;;;;;1.80;87.22;103177.19;15287228;19;20570;-66
2022/01/11 17:44:20;;;;;;;17.83;6.78;;;;;;;1.79;87.37;103197.72;15291169;19;20538;-66
2022/01/11 17:49:25;;;;;;;16.92;6.55;;;;;;;1.84;87.40;103199.94;15281773;19;20018;-67
2022/01/11 17:54:30;;;;;;;18.02;6.65;;;;;;;1.79;87.80;103184.78;15284022;19;20506;-65
2022/01/11 17:59:38;;;;;;;17.13;6.85;;;;;;;1.78;87.29;103189.06;15288844;19;20013;-66
2022/01/11 18:04:40;;;;;;;14.23;6.55;;;;;;;1.72;87.93;103191.97;15258250;19;20105;-67
2022/01/11 18:09:46;;;;;;;16.77;6.70;;;;;;;1.74;87.59;103192.13;15281377;19;20043;-67
2022/01/11 18:14:49;;;;;;;15.57;7.22;;;;;;;1.80;87.28;103187.50;15281923;19;20010;-68
2022/01/11 18:19:50;;;;;;;19.15;7.43;;;;;;;1.78;87.77;103199.41;15280787;19;20025;-67
2022/01/11 18:24:52;;;;;;;15.10;6.95;;;;;;;1.79;87.75;103201.22;15280408;19;20077;-68
2022/01/11 18:29:54;;;;;;;18.65;7.82;;;;;;;1.80;87.24;103202.13;15282464;19;20434;-68
2022/01/11 18:34:57;;;;;;;17.48;7.85;;;;;;;1.75;87.46;103200.00;15283077;19;20011;-67
2022/01/11 18:39:59;;;;;;;22.55;8.98;;;;;;;1.80;86.65;103212.44;15287650;19;20536;-67
2022/01/11 18:45:01;;;;;;;19.60;8.13;;;;;;;1.77;86.72;103206.25;15293578;19;20031;-67
2022/01/11 18:50:05;;;;;;;21.33;7.78;;;;;;;1.80;86.77;103207.28;15298932;19;20082;-66
2022/01/11 18:55:08;;;;;;;18.50;7.57;;;;;;;1.76;87.31;103201.84;15302028;19;20089;-75
2022/01/11 19:00:13;;;;;;;19.27;6.32;;;;;;;1.78;86.36;103220.06;15295136;19;20014;-73
2022/01/11 19:05:19;;;;;;;13.90;6.90;;;;;;;1.88;86.76;103217.56;15302189;19;20443;-75
2022/01/11 19:10:21;;;;;;;18.15;7.00;;;;;;;1.80;86.38;103208.19;15291133;19;20014;-75
2022/01/11 19:15:24;;;;;;;15.77;6.88;;;;;;;1.89;85.44;103206.47;15299139;19;20159;-74
2022/01/11 19:20:25;;;;;;;19.20;7.47;;;;;;;1.91;85.42;103215.25;15294657;19;20093;-74
2022/01/11 19:25:28;;;;;;;15.20;6.07;;;;;;;1.89;85.18;103214.22;15289281;19;20448;-75
2022/01/11 19:30:31;;;;;;;19.95;7.45;;;;;;;1.97;85.26;103211.41;15284296;19;20412;-75
2022/01/11 19:36:24;;;;;;;19.00;7.45;;;;;;;1.89;85.43;103219.38;15290432;19;20364;-74
2022/01/11 19:41:43;;;;;;;15.27;6.68;;;;;;;2.00;84.89;103216.84;15272511;19;20029;-75
2022/01/11 19:46:45;;;;;;;15.48;6.50;;;;;;;1.95;85.16;103229.34;15298643;19;20031;-74
2022/01/11 19:51:47;;;;;;;14.35;6.63;;;;;;;1.93;84.28;103234.38;15286304;19;20017;-76
2022/01/11 19:56:51;;;;;;;17.83;7.28;;;;;;;1.98;84.80;103245.13;15286689;19;20373;-75
2022/01/11 20:01:53;;;;;;;16.48;7.20;;;;;;;1.97;85.82;103242.41;15287782;19;20010;-75
2022/01/11 20:06:55;;;;;;;16.90;6.88;;;;;;;1.89;85.41;103241.72;15291467;19;20072;-74
2022/01/11 20:11:57;;;;;;;16.38;7.68;;;;;;;1.86;85.96;103244.94;15281318;19;20085;-76
2022/01/11 20:16:59;;;;;;;19.40;7.15;;;;;;;1.91;85.22;103238.50;15283827;19;20034;-76
2022/01/11 20:27:12;;;;;;;20.15;7.15;;;;;;;1.98;85.40;103239.06;15297372;19;20538;-75
2022/01/11 20:32:14;;;;;;;15.77;6.65;;;;;;;1.84;86.23;103246.47;15292559;19;20610;-76
2022/01/11 20:37:17;;;;;;;16.38;6.85;;;;;;;1.86;85.97;103244.94;15286230;19;20074;-76
2022/01/11 20:42:20;;;;;;;21.92;7.93;;;;;;;1.88;85.69;103243.41;15286141;19;20098;-75
2022/01/11 20:47:25;;;;;;;15.23;7.05;;;;;;;1.88;86.10;103250.25;15289929;19;20018;-74
2022/01/11 20:57:34;;;;;;;18.23;7.43;;;;;;;1.94;85.70;103259.47;15294207;19;20023;-73
2022/01/11 21:02:38;;;;;;;19.27;6.68;;;;;;;1.98;85.29;103259.75;15286639;19;20022;-75
2022/01/11 21:07:45;;;;;;;17.92;7.50;;;;;;;1.91;85.89;103254.00;15283922;19;20419;-75
2022/01/11 21:12:49;;;;;;;17.08;7.15;;;;;;;1.90;86.31;103251.28;15290541;19;20014;-75
2022/01/11 21:23:12;;;;;;;15.13;7.55;;;;;;;1.84;86.07;103251.63;15288875;19;20542;-74
2022/01/11 21:28:15;;;;;;;23.77;7.15;;;;;;;1.83;86.67;103244.66;15285839;19;20017;-74
2022/01/11 21:33:18;;;;;;;17.70;7.72;;;;;;;1.81;87.00;103250.44;15281298;19;20014;-74
2022/01/11 21:38:23;;;;;;;19.00;7.68;;;;;;;1.79;87.33;103258.06;15283712;19;20031;-72
2022/01/11 21:43:27;;;;;;;16.88;7.68;;;;;;;1.80;87.23;103249.53;15275878;19;20010;-73
2022/01/11 21:54:54;;;;;;;16.67;6.55;;;;;;;1.80;87.23;103252.09;15280348;19;20423;-74
2022/01/11 21:59:56;;;;;;;22.27;8.23;;;;;;;1.85;87.29;103262.88;15282256;19;20024;-74
2022/01/11 22:04:58;;;;;;;17.15;7.85;;;;;;;1.98;87.18;103270.97;15284852;19;20018;-73
2022/01/11 22:10:00;;;;;;;20.58;8.27;;;;;;;2.00;86.77;103278.88;15280520;19;20111;-73
2022/01/11 22:15:18;;;;;;;16.27;7.25;;;;;;;1.98;86.64;103264.91;15280245;19;20459;-73
2022/01/11 22:20:20;;;;;;;21.83;7.47;;;;;;;2.02;87.40;103267.00;15178642;19;2004288;-74
2022/01/11 22:25:25;;;;;;;18.83;6.88;;;;;;;2.03;88.09;103263.66;15282174;19;20026;-73
2022/01/11 22:30:26;;;;;;;25.45;7.68;;;;;;;2.00;88.35;103271.13;15280573;19;20007;-73
2022/01/11 22:35:28;;;;;;;20.15;8.90;;;;;;;2.02;89.52;103267.00;15279646;19;20025;-73
2022/01/11 22:40:30;;;;;;;20.98;8.35;;;;;;;1.98;90.05;103264.91;15277421;19;20074;-74
2022/01/11 22:45:31;;;;;;;23.98;9.75;;;;;;;1.96;90.00;103256.13;15280708;19;20058;-74
2022/01/11 22:50:33;;;;;;;21.83;7.97;;;;;;;2.02;89.97;103262.75;15279785;19;20013;-74
2022/01/11 22:55:35;;;;;;;18.48;7.78;;;;;;;2.09;90.09;103265.13;15280778;19;20111;-74
2022/01/11 23:00:45;;;;;;;26.23;8.75;;;;;;;1.93;90.54;103272.25;15256964;19;20010;-73
2022/01/11 23:05:48;;;;;;;17.65;7.70;;;;;;;2.04;91.13;103271.56;15280079;19;20034;-74
2022/01/11 23:10:57;;;;;;;21.45;10.00;;;;;;;1.94;91.59;103259.47;15279406;19;20006;-75
2022/01/11 23:16:00;;;;;;;22.52;10.10;;;;;;;1.91;92.53;103246.25;15278509;19;20034;-74
2022/01/11 23:21:03;;;;;;;22.27;9.63;;;;;;;1.83;93.03;103236.91;15278431;19;20009;-74
2022/01/11 23:26:06;;;;;;;22.10;9.38;;;;;;;1.84;94.13;103246.47;15280355;19;20755;-74
2022/01/11 23:31:08;;;;;;;24.98;10.15;;;;;;;1.80;94.65;103239.19;15292178;19;20006;-74
2022/01/11 23:36:13;;;;;;;22.10;9.15;;;;;;;1.78;95.29;103248.47;15294033;19;20035;-75
2022/01/11 23:41:24;;;;;;;25.70;9.68;;;;;;;1.75;95.46;103254.25;15288502;19;20014;-74
2022/01/11 23:46:25;;;;;;;24.02;9.75;;;;;;;1.80;95.61;103251.19;15293184;19;20021;-74
2022/01/11 23:51:27;;;;;;;25.42;10.38;;;;;;;1.82;95.68;103262.56;15290748;19;20010;-74